Time;durP1;ratioP1;P1;durP2;ratioP2;P2;SDS_P1;SDS_P2;PMS_P1;PMS_P2;Temp;Humidity;BMP_temperature;BMP_pressure;BME280_temperature;BME280_humidity;BME280_pressure;Samples;Min_cycle;Max_cycle;Signal;HPM_P1;HPM_P2
2023/05/02 00:01:04;;;;;;;5.75;2.00;;;;;;;;;;5033964;28;20563;-76
2023/05/02 00:03:31;;;;;;;6.20;2.17;;;;;;;;;;5045290;28;20036;-76
2023/05/02 00:05:56;;;;;;;5.70;2.53;;;;;;;;;;5033341;28;20420;-76
2023/05/02 00:08:21;;;;;;;4.78;2.42;;;;;;;;;;5041669;28;20037;-76
2023/05/02 00:10:47;;;;;;;8.38;2.78;;;;;;;;;;5058099;28;20040;-76
2023/05/02 00:13:12;;;;;;;10.10;3.20;;;;;;;;;;5039832;28;20037;-76
2023/05/02 00:15:37;;;;;;;8.23;3.10;;;;;;;;;;5044462;28;20033;-76
2023/05/02 00:18:03;;;;;;;7.35;3.00;;;;;;;;;;5031205;28;20029;-76
2023/05/02 00:20:28;;;;;;;6.90;3.00;;;;;;;;;;5035347;28;20042;-76
2023/05/02 00:22:55;;;;;;;5.43;2.33;;;;;;;;;;5034074;28;20072;-76
2023/05/02 00:25:21;;;;;;;8.00;2.15;;;;;;;;;;5063307;28;20038;-76
2023/05/02 00:27:47;;;;;;;5.38;2.10;;;;;;;;;;5034710;28;20029;-77
2023/05/02 00:30:13;;;;;;;3.05;1.85;;;;;;;;;;5038135;28;20045;-77
2023/05/02 00:32:39;;;;;;;4.65;2.20;;;;;;;;;;5047405;28;20485;-76
2023/05/02 00:35:05;;;;;;;6.53;1.95;;;;;;;;;;5045278;28;20040;-76
2023/05/02 00:37:30;;;;;;;6.40;1.90;;;;;;;;;;5039733;28;20051;-76
2023/05/02 00:39:56;;;;;;;4.85;2.20;;;;;;;;;;5042118;28;20108;-76
2023/05/02 00:42:21;;;;;;;5.95;2.00;;;;;;;;;;5025464;28;20128;-76
2023/05/02 00:44:47;;;;;;;4.43;2.00;;;;;;;;;;5039322;28;20477;-76
2023/05/02 00:47:13;;;;;;;8.30;2.15;;;;;;;;;;5039040;28;20116;-76
2023/05/02 00:49:39;;;;;;;4.35;2.10;;;;;;;;;;5031647;28;20041;-76
2023/05/02 00:52:06;;;;;;;7.63;2.45;;;;;;;;;;5044435;28;20041;-76
2023/05/02 00:54:31;;;;;;;7.63;2.13;;;;;;;;;;5052631;28;20035;-76
2023/05/02 00:56:58;;;;;;;5.82;2.03;;;;;;;;;;5036168;28;20053;-75
2023/05/02 00:59:24;;;;;;;6.60;2.00;;;;;;;;;;5037293;28;20033;-76
2023/05/02 01:02:37;;;;;;;5.80;2.25;;;;;;;;;;5041137;28;20029;-76
2023/05/02 01:05:15;;;;;;;3.38;1.85;;;;;;;;;;4992465;28;20145;-76
2023/05/02 01:07:46;;;;;;;6.18;2.00;;;;;;;;;;4973572;28;20044;-76
2023/05/02 01:10:46;;;;;;;6.47;2.05;;;;;;;;;;5022787;28;20052;-76
2023/05/02 01:13:13;;;;;;;12.88;2.20;;;;;;;;;;5014172;28;20135;-76
2023/05/02 01:15:40;;;;;;;6.50;2.45;;;;;;;;;;5042835;28;20037;-76
2023/05/02 01:18:08;;;;;;;5.72;2.33;;;;;;;;;;5033044;28;20375;-76
2023/05/02 01:20:37;;;;;;;4.85;2.28;;;;;;;;;;5045047;28;20037;-76
2023/05/02 01:23:11;;;;;;;3.92;1.80;;;;;;;;;;5048766;28;20052;-76
2023/05/02 01:25:58;;;;;;;6.93;2.63;;;;;;;;;;5052219;28;20037;-76
2023/05/02 01:28:48;;;;;;;8.05;2.40;;;;;;;;;;5035354;28;20117;-76
2023/05/02 01:31:15;;;;;;;4.95;2.22;;;;;;;;;;5039645;28;20559;-77
2023/05/02 01:33:41;;;;;;;4.40;1.95;;;;;;;;;;5046060;28;20055;-76
2023/05/02 01:36:07;;;;;;;8.05;2.47;;;;;;;;;;5037488;28;20060;-76
2023/05/02 01:38:34;;;;;;;5.63;2.20;;;;;;;;;;5039251;28;20064;-76
2023/05/02 01:41:04;;;;;;;6.95;2.13;;;;;;;;;;5046997;28;20041;-76
2023/05/02 01:43:32;;;;;;;4.38;2.00;;;;;;;;;;5043289;28;20029;-76
2023/05/02 01:45:58;;;;;;;4.72;1.98;;;;;;;;;;5040904;28;20034;-75
2023/05/02 01:48:26;;;;;;;4.03;1.95;;;;;;;;;;5037568;28;20033;-76
2023/05/02 01:50:53;;;;;;;5.28;2.20;;;;;;;;;;5034149;28;20033;-77
2023/05/02 01:53:21;;;;;;;7.38;2.05;;;;;;;;;;5064071;28;20040;-75
2023/05/02 01:55:48;;;;;;;4.13;1.98;;;;;;;;;;5044662;28;20053;-76
2023/05/02 01:58:13;;;;;;;4.35;2.22;;;;;;;;;;5058738;28;20041;-76
2023/05/02 02:00:40;;;;;;;5.00;2.28;;;;;;;;;;5031809;28;20034;-76
2023/05/02 02:03:06;;;;;;;8.00;2.30;;;;;;;;;;5042461;28;20041;-76
2023/05/02 02:05:33;;;;;;;4.95;2.25;;;;;;;;;;5054921;28;20086;-76
2023/05/02 02:07:59;;;;;;;4.65;1.83;;;;;;;;;;5043946;28;20036;-76
2023/05/02 02:10:26;;;;;;;7.15;2.20;;;;;;;;;;5037399;28;20037;-76
2023/05/02 02:12:53;;;;;;;7.82;2.47;;;;;;;;;;5061711;28;20092;-76
2023/05/02 02:15:27;;;;;;;6.45;2.30;;;;;;;;;;5044801;28;20033;-76
2023/05/02 02:18:07;;;;;;;;;;;;;;;;;;5043200;28;20041;-76
2023/05/02 02:20:34;;;;;;;4.50;1.90;;;;;;;;;;5042920;28;19996;-76
2023/05/02 02:23:02;;;;;;;7.60;2.17;;;;;;;;;;5046256;28;20111;-76
2023/05/02 02:25:28;;;;;;;4.32;1.98;;;;;;;;;;5057756;28;20039;-76
2023/05/02 02:27:54;;;;;;;5.70;2.15;;;;;;;;;;5037482;28;20026;-76
2023/05/02 02:30:19;;;;;;;6.25;2.25;;;;;;;;;;5036082;28;20041;-76
2023/05/02 02:32:44;;;;;;;8.88;2.55;;;;;;;;;;5044692;28;20040;-76
2023/05/02 02:35:10;;;;;;;4.95;2.03;;;;;;;;;;5048883;28;20041;-76
2023/05/02 02:37:48;;;;;;;8.43;2.10;;;;;;;;;;5048728;28;20091;-76
2023/05/02 02:40:42;;;;;;;5.72;1.98;;;;;;;;;;5047377;28;20037;-76
2023/05/02 02:43:29;;;;;;;7.00;2.60;;;;;;;;;;5022402;28;20449;-76
2023/05/02 02:46:18;;;;;;;7.57;2.10;;;;;;;;;;5030473;28;20038;-76
2023/05/02 02:48:49;;;;;;;5.68;2.30;;;;;;;;;;5034417;28;20428;-76
2023/05/02 02:51:45;;;;;;;5.47;2.00;;;;;;;;;;5036409;28;20031;-76
2023/05/02 02:54:19;;;;;;;3.03;1.90;;;;;;;;;;5034786;28;20485;-77
2023/05/02 02:56:46;;;;;;;7.35;2.45;;;;;;;;;;5030122;28;20490;-76
2023/05/02 02:59:18;;;;;;;3.72;1.95;;;;;;;;;;5057942;28;20042;-77
2023/05/02 03:01:48;;;;;;;5.43;2.13;;;;;;;;;;5036286;28;20033;-76
2023/05/02 03:04:15;;;;;;;8.00;2.30;;;;;;;;;;5054693;28;20044;-76
2023/05/02 03:06:41;;;;;;;12.52;2.33;;;;;;;;;;5033841;28;20025;-76
2023/05/02 03:09:13;;;;;;;6.97;2.33;;;;;;;;;;5035504;28;20504;-76
2023/05/02 03:11:39;;;;;;;5.40;2.40;;;;;;;;;;5050072;28;20477;-76
2023/05/02 03:14:05;;;;;;;10.38;2.20;;;;;;;;;;5048904;28;20043;-76
2023/05/02 03:16:35;;;;;;;4.20;2.10;;;;;;;;;;5035257;28;20029;-75
2023/05/02 03:19:01;;;;;;;4.88;1.88;;;;;;;;;;5037295;28;20057;-76
2023/05/02 03:21:26;;;;;;;4.80;2.20;;;;;;;;;;5039491;28;20099;-76
2023/05/02 03:23:52;;;;;;;6.47;2.05;;;;;;;;;;5039755;28;20526;-76
2023/05/02 03:26:17;;;;;;;5.00;2.10;;;;;;;;;;5055833;28;20036;-76
2023/05/02 03:28:45;;;;;;;9.43;2.28;;;;;;;;;;5038431;28;20075;-75
2023/05/02 03:31:11;;;;;;;7.15;2.00;;;;;;;;;;5036739;28;20045;-76
2023/05/02 03:33:36;;;;;;;3.47;1.95;;;;;;;;;;5037117;28;20052;-76
2023/05/02 03:36:02;;;;;;;4.05;2.15;;;;;;;;;;5042660;28;20107;-76
2023/05/02 03:38:28;;;;;;;7.15;2.33;;;;;;;;;;5034683;28;20385;-76
2023/05/02 03:40:56;;;;;;;5.63;2.60;;;;;;;;;;5042945;28;20037;-76
2023/05/02 03:43:21;;;;;;;6.55;2.13;;;;;;;;;;5055502;28;20065;-76
2023/05/02 03:45:47;;;;;;;6.10;2.63;;;;;;;;;;5033439;28;20118;-76
2023/05/02 03:48:12;;;;;;;5.38;2.42;;;;;;;;;;5043796;28;20037;-76
2023/05/02 03:50:38;;;;;;;6.07;2.03;;;;;;;;;;5035178;28;20100;-76
2023/05/02 03:53:03;;;;;;;3.28;2.20;;;;;;;;;;5040506;28;20048;-76
2023/05/02 03:55:28;;;;;;;5.28;2.30;;;;;;;;;;5034602;28;20501;-76
2023/05/02 03:57:54;;;;;;;4.53;2.22;;;;;;;;;;5037597;28;20043;-76
2023/05/02 04:00:19;;;;;;;6.80;2.42;;;;;;;;;;5041777;28;20435;-76
2023/05/02 04:02:45;;;;;;;3.17;1.98;;;;;;;;;;5038067;28;20037;-76
2023/05/02 04:05:10;;;;;;;5.03;2.30;;;;;;;;;;5034234;28;20053;-76
2023/05/02 04:07:35;;;;;;;9.77;2.38;;;;;;;;;;5036973;28;20120;-76
2023/05/02 04:10:01;;;;;;;4.03;1.95;;;;;;;;;;5049979;28;20437;-75
2023/05/02 04:12:26;;;;;;;10.23;2.58;;;;;;;;;;5036782;28;20041;-76
2023/05/02 04:14:52;;;;;;;7.15;2.00;;;;;;;;;;5034733;28;20041;-76
2023/05/02 04:17:17;;;;;;;7.25;2.55;;;;;;;;;;5033739;28;20042;-76
2023/05/02 04:19:42;;;;;;;4.00;2.03;;;;;;;;;;5043109;28;20041;-76
2023/05/02 04:22:08;;;;;;;5.88;2.25;;;;;;;;;;5038334;28;20029;-76
2023/05/02 04:24:33;;;;;;;5.45;2.22;;;;;;;;;;5051283;28;20479;-76
2023/05/02 04:26:58;;;;;;;7.63;2.33;;;;;;;;;;5049916;28;20025;-76
2023/05/02 04:29:24;;;;;;;5.18;2.40;;;;;;;;;;5045242;28;20045;-77
2023/05/02 04:31:50;;;;;;;6.68;2.45;;;;;;;;;;5041675;28;20067;-76
2023/05/02 04:34:15;;;;;;;5.13;2.35;;;;;;;;;;5046198;28;20392;-76
2023/05/02 04:36:41;;;;;;;4.00;2.08;;;;;;;;;;5041953;28;20029;-76
2023/05/02 04:39:06;;;;;;;5.03;2.10;;;;;;;;;;5045985;28;20040;-77
2023/05/02 04:41:32;;;;;;;4.55;1.98;;;;;;;;;;5053546;28;20049;-76
2023/05/02 04:43:58;;;;;;;4.47;1.85;;;;;;;;;;5041892;28;20029;-76
2023/05/02 04:46:23;;;;;;;6.18;1.80;;;;;;;;;;5040236;28;20148;-76
2023/05/02 04:48:49;;;;;;;4.88;2.10;;;;;;;;;;5041796;28;20029;-76
2023/05/02 04:51:14;;;;;;;3.40;2.05;;;;;;;;;;5036376;28;20040;-76
2023/05/02 04:53:40;;;;;;;9.48;2.03;;;;;;;;;;5062684;28;20033;-76
2023/05/02 04:56:06;;;;;;;7.20;2.05;;;;;;;;;;5039005;28;20370;-75
2023/05/02 04:58:31;;;;;;;6.53;2.08;;;;;;;;;;5039692;28;20049;-76
2023/05/02 05:00:57;;;;;;;5.78;1.58;;;;;;;;;;5040245;28;20147;-76
2023/05/02 05:03:23;;;;;;;5.05;2.08;;;;;;;;;;5036482;28;20025;-76
2023/05/02 05:05:48;;;;;;;5.65;2.15;;;;;;;;;;5049244;28;20037;-76
2023/05/02 05:08:14;;;;;;;4.88;2.03;;;;;;;;;;5038853;28;20095;-76
2023/05/02 05:10:39;;;;;;;7.88;2.10;;;;;;;;;;5045109;28;20033;-76
2023/05/02 05:13:05;;;;;;;4.93;1.85;;;;;;;;;;5044351;28;20040;-76
2023/05/02 05:15:30;;;;;;;5.03;2.10;;;;;;;;;;5036866;28;20045;-76
2023/05/02 05:17:56;;;;;;;4.57;1.70;;;;;;;;;;5047240;28;20473;-76
2023/05/02 05:20:21;;;;;;;4.30;1.90;;;;;;;;;;5038257;28;20436;-76
2023/05/02 05:22:47;;;;;;;5.72;2.28;;;;;;;;;;5038866;28;20068;-76
2023/05/02 05:25:12;;;;;;;5.93;1.58;;;;;;;;;;5040363;28;20036;-75
2023/05/02 05:27:38;;;;;;;6.35;1.90;;;;;;;;;;5038323;28;20381;-76
2023/05/02 05:30:05;;;;;;;2.75;1.80;;;;;;;;;;5046263;28;20041;-76
2023/05/02 05:32:32;;;;;;;3.67;1.63;;;;;;;;;;5036117;28;20492;-76
2023/05/02 05:34:57;;;;;;;4.85;1.83;;;;;;;;;;5038455;28;20045;-76
2023/05/02 05:37:23;;;;;;;6.20;1.85;;;;;;;;;;5039306;28;20091;-76
2023/05/02 05:39:48;;;;;;;3.13;1.65;;;;;;;;;;5038698;28;20057;-76
2023/05/02 05:42:14;;;;;;;6.80;1.85;;;;;;;;;;5051436;28;20029;-76
2023/05/02 05:44:39;;;;;;;4.05;1.90;;;;;;;;;;5036869;28;20370;-76
2023/05/02 05:47:04;;;;;;;4.15;2.17;;;;;;;;;;5044474;28;20057;-76
2023/05/02 05:49:30;;;;;;;4.43;2.00;;;;;;;;;;5042183;28;20477;-76
2023/05/02 05:51:55;;;;;;;10.45;2.10;;;;;;;;;;5039895;28;20047;-75
2023/05/02 05:54:21;;;;;;;6.82;2.17;;;;;;;;;;5042106;28;20029;-77
2023/05/02 05:56:46;;;;;;;4.40;2.38;;;;;;;;;;5040016;28;20438;-76
2023/05/02 05:59:12;;;;;;;5.82;2.47;;;;;;;;;;5052796;28;20397;-77
2023/05/02 06:01:37;;;;;;;8.07;2.50;;;;;;;;;;5036718;28;20094;-76
2023/05/02 06:04:03;;;;;;;5.80;2.40;;;;;;;;;;5045870;28;20485;-76
2023/05/02 06:06:30;;;;;;;7.40;2.58;;;;;;;;;;5048914;28;20120;-77
2023/05/02 06:08:56;;;;;;;9.35;4.00;;;;;;;;;;5044912;28;20535;-76
2023/05/02 06:11:23;;;;;;;8.25;3.53;;;;;;;;;;5043592;28;20067;-76
2023/05/02 06:13:50;;;;;;;7.28;4.07;;;;;;;;;;5035631;28;20110;-76
2023/05/02 06:16:16;;;;;;;10.55;4.43;;;;;;;;;;5041300;28;20031;-76
2023/05/02 06:18:42;;;;;;;17.17;7.65;;;;;;;;;;5037764;28;20045;-76
2023/05/02 06:21:07;;;;;;;21.02;7.97;;;;;;;;;;5042372;28;20044;-77
2023/05/02 06:23:33;;;;;;;25.27;8.93;;;;;;;;;;5044523;28;20029;-76
2023/05/02 06:26:00;;;;;;;22.02;9.13;;;;;;;;;;5034530;28;20039;-76
2023/05/02 06:28:25;;;;;;;32.92;11.48;;;;;;;;;;5040271;28;20078;-76
2023/05/02 06:31:01;;;;;;;23.77;11.60;;;;;;;;;;5044839;28;20037;-76
2023/05/02 06:33:29;;;;;;;27.60;10.02;;;;;;;;;;5036595;28;20036;-76
2023/05/02 06:35:55;;;;;;;33.65;11.35;;;;;;;;;;5034182;28;20041;-76
2023/05/02 06:38:21;;;;;;;29.70;13.15;;;;;;;;;;5035890;28;20051;-77
2023/05/02 06:40:47;;;;;;;35.42;12.70;;;;;;;;;;5043300;28;20496;-77
2023/05/02 06:43:13;;;;;;;32.58;12.82;;;;;;;;;;5040146;28;20045;-77
2023/05/02 06:45:39;;;;;;;38.88;14.00;;;;;;;;;;5040766;28;20065;-76
2023/05/02 06:48:05;;;;;;;30.27;12.15;;;;;;;;;;5034308;28;20040;-77
2023/05/02 06:50:31;;;;;;;30.45;13.65;;;;;;;;;;5044993;28;20060;-77
2023/05/02 06:52:56;;;;;;;33.58;12.63;;;;;;;;;;5046320;28;20064;-76
2023/05/02 06:55:22;;;;;;;32.10;12.35;;;;;;;;;;5036208;28;20433;-76
2023/05/02 06:57:48;;;;;;;30.08;12.13;;;;;;;;;;5033666;28;20045;-77
2023/05/02 07:00:15;;;;;;;27.17;12.20;;;;;;;;;;5042808;28;20045;-78
2023/05/02 07:02:41;;;;;;;27.27;12.18;;;;;;;;;;5039653;28;20094;-77
2023/05/02 07:05:07;;;;;;;24.30;11.35;;;;;;;;;;5040936;28;20045;-77
2023/05/02 07:07:32;;;;;;;20.17;10.98;;;;;;;;;;5042926;28;20043;-77
2023/05/02 07:09:57;;;;;;;20.30;10.20;;;;;;;;;;5035067;28;20087;-78
2023/05/02 07:12:24;;;;;;;22.73;10.23;;;;;;;;;;5036218;28;20071;-78
2023/05/02 07:14:49;;;;;;;22.77;10.20;;;;;;;;;;5030864;28;20105;-77
2023/05/02 07:17:15;;;;;;;16.50;9.35;;;;;;;;;;5043924;28;20056;-77
2023/05/02 07:19:40;;;;;;;18.52;9.63;;;;;;;;;;5035283;28;20037;-77
2023/05/02 07:22:06;;;;;;;16.60;9.18;;;;;;;;;;5041306;28;20025;-77
2023/05/02 07:24:31;;;;;;;14.88;8.15;;;;;;;;;;5039802;28;20037;-77
2023/05/02 07:26:56;;;;;;;15.75;8.63;;;;;;;;;;5051390;28;20045;-77
2023/05/02 07:29:22;;;;;;;14.40;8.20;;;;;;;;;;5033870;28;20036;-77
2023/05/02 07:31:47;;;;;;;13.02;7.93;;;;;;;;;;5038155;28;20388;-78
2023/05/02 07:34:13;;;;;;;13.95;8.05;;;;;;;;;;5036681;28;20052;-77
2023/05/02 07:36:38;;;;;;;17.10;6.65;;;;;;;;;;5036052;28;20033;-77
2023/05/02 07:39:04;;;;;;;10.52;6.55;;;;;;;;;;5044258;28;20479;-77
2023/05/02 07:41:29;;;;;;;12.02;6.57;;;;;;;;;;5039122;28;20041;-76
2023/05/02 07:43:56;;;;;;;8.98;6.20;;;;;;;;;;5038360;28;20038;-77
2023/05/02 07:46:22;;;;;;;8.85;5.30;;;;;;;;;;5048796;28;20466;-77
2023/05/02 07:48:47;;;;;;;11.20;5.78;;;;;;;;;;5036174;28;20116;-77
2023/05/02 07:51:13;;;;;;;8.73;5.20;;;;;;;;;;5035184;28;20037;-76
2023/05/02 07:53:38;;;;;;;9.60;5.18;;;;;;;;;;5046912;28;20029;-76
2023/05/02 07:56:05;;;;;;;9.05;4.78;;;;;;;;;;5038400;28;20071;-77
2023/05/02 07:58:31;;;;;;;7.43;4.72;;;;;;;;;;5038982;28;20131;-78
2023/05/02 08:00:56;;;;;;;11.98;5.03;;;;;;;;;;5037353;28;20116;-77
2023/05/02 08:03:22;;;;;;;9.75;4.82;;;;;;;;;;5037329;28;20068;-78
2023/05/02 08:05:47;;;;;;;5.53;4.10;;;;;;;;;;5033978;28;20033;-78
2023/05/02 08:08:12;;;;;;;6.40;4.53;;;;;;;;;;5038944;28;20394;-76
2023/05/02 08:10:38;;;;;;;12.18;3.83;;;;;;;;;;5050010;28;20041;-77
2023/05/02 08:13:03;;;;;;;8.50;3.45;;;;;;;;;;5037830;28;20029;-77
2023/05/02 08:15:29;;;;;;;4.97;3.00;;;;;;;;;;5041699;28;20056;-77
2023/05/02 08:17:54;;;;;;;6.82;3.03;;;;;;;;;;5033810;28;20370;-78
2023/05/02 08:20:21;;;;;;;8.50;3.35;;;;;;;;;;5011440;28;20229;-77
2023/05/02 08:22:47;;;;;;;4.13;1.98;;;;;;;;;;5036035;28;20120;-77
2023/05/02 08:25:12;;;;;;;7.65;3.22;;;;;;;;;;5031444;28;20421;-78
2023/05/02 08:27:37;;;;;;;6.05;3.40;;;;;;;;;;5031727;28;20422;-78
2023/05/02 08:30:03;;;;;;;5.38;2.90;;;;;;;;;;5032173;28;20121;-78
2023/05/02 08:32:29;;;;;;;5.22;2.78;;;;;;;;;;5035257;28;20050;-77
2023/05/02 08:34:55;;;;;;;5.68;2.58;;;;;;;;;;5033846;28;20068;-78
2023/05/02 08:37:21;;;;;;;7.40;2.42;;;;;;;;;;5042681;28;20045;-78
2023/05/02 08:39:47;;;;;;;6.38;2.80;;;;;;;;;;5047963;28;20076;-78
2023/05/02 08:42:12;;;;;;;8.18;3.35;;;;;;;;;;5029210;28;20430;-79
2023/05/02 08:44:38;;;;;;;10.85;2.80;;;;;;;;;;5036232;28;20045;-78
2023/05/02 08:47:04;;;;;;;5.63;2.88;;;;;;;;;;5035400;28;20037;-78
2023/05/02 08:49:34;;;;;;;6.75;2.92;;;;;;;;;;5036871;28;20032;-77
2023/05/02 08:52:01;;;;;;;5.22;2.70;;;;;;;;;;5019235;28;20072;-77
2023/05/02 08:54:26;;;;;;;8.15;3.13;;;;;;;;;;5033062;28;20060;-78
2023/05/02 08:56:53;;;;;;;10.70;3.17;;;;;;;;;;5031552;28;20373;-78
2023/05/02 08:59:18;;;;;;;5.40;2.80;;;;;;;;;;5042613;28;20120;-78
2023/05/02 09:01:48;;;;;;;6.10;2.78;;;;;;;;;;5038457;28;20212;-77
2023/05/02 09:04:13;;;;;;;5.95;2.95;;;;;;;;;;5034082;28;20099;-77
2023/05/02 09:06:39;;;;;;;6.57;3.35;;;;;;;;;;5028265;28;20473;-78
2023/05/02 09:09:05;;;;;;;4.72;2.72;;;;;;;;;;5043450;28;20832;-77
2023/05/02 09:11:31;;;;;;;9.98;2.95;;;;;;;;;;5032761;28;20033;-79
2023/05/02 09:14:02;;;;;;;9.35;3.03;;;;;;;;;;5031001;28;20037;-77
2023/05/02 09:16:28;;;;;;;7.53;3.33;;;;;;;;;;5029809;28;20033;-78
2023/05/02 09:18:55;;;;;;;5.45;2.45;;;;;;;;;;5029668;28;20489;-77
2023/05/02 09:21:35;;;;;;;6.35;2.80;;;;;;;;;;5036668;28;20060;-77
2023/05/02 09:24:02;;;;;;;8.40;3.10;;;;;;;;;;5037706;28;20042;-78
2023/05/02 09:26:32;;;;;;;7.00;2.97;;;;;;;;;;5038938;28;20109;-77
2023/05/02 09:29:02;;;;;;;4.97;2.92;;;;;;;;;;5037119;28;20033;-78
2023/05/02 09:31:35;;;;;;;6.15;3.05;;;;;;;;;;5031008;28;20051;-77
2023/05/02 09:34:12;;;;;;;7.90;3.03;;;;;;;;;;5018593;28;20402;-78
2023/05/02 09:36:45;;;;;;;6.95;2.83;;;;;;;;;;5051474;28;20120;-78
2023/05/02 09:39:15;;;;;;;6.78;3.20;;;;;;;;;;5019405;28;20049;-78
2023/05/02 09:41:42;;;;;;;6.18;2.72;;;;;;;;;;5029649;28;20153;-78
2023/05/02 09:44:12;;;;;;;5.38;2.70;;;;;;;;;;5041895;28;20055;-78
2023/05/02 09:46:42;;;;;;;5.82;2.75;;;;;;;;;;5028774;28;20030;-77
2023/05/02 09:49:08;;;;;;;6.50;2.80;;;;;;;;;;5043804;28;20396;-78
2023/05/02 09:51:34;;;;;;;6.70;2.97;;;;;;;;;;5033631;28;20116;-77
2023/05/02 09:54:00;;;;;;;6.47;2.80;;;;;;;;;;5038274;28;20101;-78
2023/05/02 09:56:25;;;;;;;7.30;2.80;;;;;;;;;;5030080;28;20061;-78
2023/05/02 09:58:51;;;;;;;6.63;2.80;;;;;;;;;;5033029;28;20029;-78
2023/05/02 10:01:18;;;;;;;5.53;2.78;;;;;;;;;;5033566;28;20148;-77
2023/05/02 10:03:47;;;;;;;6.20;2.88;;;;;;;;;;5038492;28;20041;-78
2023/05/02 10:06:13;;;;;;;8.50;2.83;;;;;;;;;;5031938;28;20049;-78
2023/05/02 10:08:38;;;;;;;8.40;3.33;;;;;;;;;;5038041;28;20032;-78
2023/05/02 10:11:07;;;;;;;5.00;2.58;;;;;;;;;;5031601;28;20528;-78
2023/05/02 10:13:33;;;;;;;10.43;3.75;;;;;;;;;;5034733;28;20033;-78
2023/05/02 10:16:06;;;;;;;5.95;2.70;;;;;;;;;;5040237;28;20377;-78
2023/05/02 10:18:51;;;;;;;7.07;2.90;;;;;;;;;;5054319;28;20496;-78
2023/05/02 10:21:26;;;;;;;8.00;2.65;;;;;;;;;;5027800;28;20033;-79
2023/05/02 10:23:52;;;;;;;8.27;3.65;;;;;;;;;;5034607;28;20041;-79
2023/05/02 10:26:20;;;;;;;7.50;3.80;;;;;;;;;;5057364;28;20072;-79
2023/05/02 10:28:46;;;;;;;7.00;3.08;;;;;;;;;;5029203;28;20413;-78
2023/05/02 10:31:13;;;;;;;5.85;3.30;;;;;;;;;;5028337;28;20046;-78
2023/05/02 10:33:39;;;;;;;8.38;3.60;;;;;;;;;;5030792;28;20033;-79
2023/05/02 10:36:07;;;;;;;7.85;4.05;;;;;;;;;;5028010;28;20044;-79
2023/05/02 10:38:32;;;;;;;11.00;3.60;;;;;;;;;;5029965;28;20030;-78
2023/05/02 10:41:08;;;;;;;9.68;3.45;;;;;;;;;;5029969;28;20036;-78
2023/05/02 10:43:36;;;;;;;6.10;3.30;;;;;;;;;;5038286;28;20041;-78
2023/05/02 10:46:02;;;;;;;7.90;3.28;;;;;;;;;;5052788;28;20119;-79
2023/05/02 10:48:28;;;;;;;8.23;3.47;;;;;;;;;;5056385;28;20450;-78
2023/05/02 10:50:53;;;;;;;7.70;3.53;;;;;;;;;;5038667;28;20139;-79
2023/05/02 10:53:28;;;;;;;12.73;3.97;;;;;;;;;;5042491;28;20108;-78
2023/05/02 10:56:24;;;;;;;7.10;3.90;;;;;;;;;;5042965;28;20053;-78
2023/05/02 10:58:51;;;;;;;7.70;3.40;;;;;;;;;;5048268;28;20037;-78
2023/05/02 11:01:28;;;;;;;5.40;3.15;;;;;;;;;;5021051;28;20041;-78
2023/05/02 11:03:58;;;;;;;7.20;3.35;;;;;;;;;;5038233;28;20060;-79
2023/05/02 11:06:26;;;;;;;5.78;3.63;;;;;;;;;;5036881;28;20033;-78
2023/05/02 11:08:52;;;;;;;6.68;3.47;;;;;;;;;;5028294;28;20501;-78
2023/05/02 11:11:39;;;;;;;5.38;3.40;;;;;;;;;;5052334;28;20125;-78
2023/05/02 11:14:05;;;;;;;6.20;3.72;;;;;;;;;;5029558;28;20116;-78
2023/05/02 11:16:58;;;;;;;7.18;3.70;;;;;;;;;;5034664;28;20164;-78
2023/05/02 11:19:27;;;;;;;7.07;4.00;;;;;;;;;;5034658;28;20038;-78
2023/05/02 11:22:26;;;;;;;8.43;3.80;;;;;;;;;;5027861;28;20041;-78
2023/05/02 11:24:52;;;;;;;7.63;4.05;;;;;;;;;;5033843;28;20859;-78
2023/05/02 11:27:30;;;;;;;5.93;3.83;;;;;;;;;;5032113;28;20039;-78
2023/05/02 11:30:00;;;;;;;8.95;3.92;;;;;;;;;;5034097;28;20090;-78
2023/05/02 11:32:44;;;;;;;5.30;3.72;;;;;;;;;;5033280;28;20183;-79
2023/05/02 11:35:14;;;;;;;;;;;;;;;;;;5033700;28;20050;-78
2023/05/02 11:37:39;;;;;;;8.07;4.18;;;;;;;;;;5029521;28;20012;-78
2023/05/02 11:40:12;;;;;;;6.07;3.90;;;;;;;;;;5032163;28;20125;-78
2023/05/02 11:42:37;;;;;;;8.18;4.50;;;;;;;;;;5027819;28;20041;-78
2023/05/02 11:45:03;;;;;;;8.38;4.10;;;;;;;;;;5028957;28;20037;-78
2023/05/02 11:47:31;;;;;;;8.95;4.68;;;;;;;;;;5041623;28;20041;-78
2023/05/02 11:49:58;;;;;;;9.30;4.45;;;;;;;;;;5056565;28;20120;-78
2023/05/02 11:52:24;;;;;;;7.43;4.03;;;;;;;;;;5040870;28;20117;-78
2023/05/02 11:54:54;;;;;;;11.60;4.78;;;;;;;;;;5044296;28;20148;-78
2023/05/02 11:57:20;;;;;;;8.13;4.10;;;;;;;;;;5028356;28;20146;-78
2023/05/02 11:59:54;;;;;;;7.28;4.32;;;;;;;;;;5039303;28;20044;-78
2023/05/02 12:02:20;;;;;;;;;;;;;;;;;;5062660;28;20033;-79
2023/05/02 12:04:45;;;;;;;6.43;4.05;;;;;;;;;;5025085;28;21631;-78
2023/05/02 12:07:11;;;;;;;6.90;4.30;;;;;;;;;;5030663;28;20088;-79
2023/05/02 12:09:50;;;;;;;6.80;3.42;;;;;;;;;;5027138;28;20409;-78
2023/05/02 12:12:20;;;;;;;6.70;4.10;;;;;;;;;;5039597;28;20091;-78
2023/05/02 12:14:45;;;;;;;8.38;3.63;;;;;;;;;;5056760;28;20044;-78
2023/05/02 12:17:11;;;;;;;6.20;3.80;;;;;;;;;;5041634;28;20045;-78
2023/05/02 12:19:36;;;;;;;8.57;3.63;;;;;;;;;;5046305;28;20033;-78
2023/05/02 12:22:02;;;;;;;8.48;4.40;;;;;;;;;;5032607;28;20049;-78
2023/05/02 12:24:28;;;;;;;7.40;3.70;;;;;;;;;;5032691;28;20389;-78
2023/05/02 12:27:10;;;;;;;8.48;4.80;;;;;;;;;;5025846;28;20025;-78
2023/05/02 12:29:37;;;;;;;8.70;4.10;;;;;;;;;;5033312;28;20041;-78
2023/05/02 12:32:03;;;;;;;7.85;4.00;;;;;;;;;;5030519;28;20541;-78
2023/05/02 12:34:35;;;;;;;6.60;3.97;;;;;;;;;;5032889;28;20137;-78
2023/05/02 12:37:02;;;;;;;10.20;4.30;;;;;;;;;;5040532;28;20041;-78
2023/05/02 12:39:42;;;;;;;8.55;4.07;;;;;;;;;;5051407;28;20448;-79
2023/05/02 12:42:10;;;;;;;6.65;3.95;;;;;;;;;;5029360;28;20034;-78
2023/05/02 12:44:37;;;;;;;7.55;4.03;;;;;;;;;;5029999;28;20467;-78
2023/05/02 12:47:03;;;;;;;6.93;3.90;;;;;;;;;;5032813;28;20037;-78
2023/05/02 12:49:28;;;;;;;8.55;3.88;;;;;;;;;;5034453;28;20038;-78
2023/05/02 12:51:57;;;;;;;9.50;4.10;;;;;;;;;;5031337;28;20431;-79
2023/05/02 12:54:22;;;;;;;6.90;4.10;;;;;;;;;;5034051;28;20045;-77
2023/05/02 12:56:50;;;;;;;9.52;3.78;;;;;;;;;;5035778;28;20030;-77
2023/05/02 12:59:30;;;;;;;8.15;4.28;;;;;;;;;;5036668;28;20025;-78
2023/05/02 13:01:56;;;;;;;8.00;4.43;;;;;;;;;;5024112;28;20095;-78
2023/05/02 13:04:32;;;;;;;7.32;4.00;;;;;;;;;;5031218;28;20386;-78
2023/05/02 13:06:58;;;;;;;5.78;3.53;;;;;;;;;;5033843;28;20029;-78
2023/05/02 13:09:23;;;;;;;9.25;3.78;;;;;;;;;;5035610;28;20029;-78
2023/05/02 13:11:49;;;;;;;8.02;4.65;;;;;;;;;;5030696;28;20037;-77
2023/05/02 13:14:14;;;;;;;6.18;3.70;;;;;;;;;;5030087;28;20065;-78
2023/05/02 13:16:40;;;;;;;7.68;3.90;;;;;;;;;;5029817;28;20029;-78
2023/05/02 13:19:05;;;;;;;8.88;4.57;;;;;;;;;;5032894;28;20045;-78
2023/05/02 13:21:31;;;;;;;7.50;4.43;;;;;;;;;;5031237;28;20207;-78
2023/05/02 13:23:57;;;;;;;6.32;4.10;;;;;;;;;;5027680;28;20920;-78
2023/05/02 13:26:23;;;;;;;6.82;3.83;;;;;;;;;;5028884;28;20099;-77
2023/05/02 13:28:48;;;;;;;7.13;3.90;;;;;;;;;;5031633;28;20029;-78
2023/05/02 13:31:13;;;;;;;7.82;3.90;;;;;;;;;;5031140;28;20057;-78
2023/05/02 13:33:39;;;;;;;10.60;4.47;;;;;;;;;;5031396;28;20520;-78
2023/05/02 13:36:05;;;;;;;7.50;4.00;;;;;;;;;;5030523;28;20041;-78
2023/05/02 13:38:30;;;;;;;7.18;3.55;;;;;;;;;;5033069;28;20040;-78
2023/05/02 13:40:56;;;;;;;8.40;4.10;;;;;;;;;;5038713;28;20091;-77
2023/05/02 13:43:21;;;;;;;5.95;3.58;;;;;;;;;;5035995;28;20041;-77
2023/05/02 13:45:47;;;;;;;9.65;4.35;;;;;;;;;;5039973;28;20086;-78
2023/05/02 13:48:14;;;;;;;8.75;3.92;;;;;;;;;;5034640;28;20041;-78
2023/05/02 13:50:39;;;;;;;8.73;4.50;;;;;;;;;;5045433;28;20051;-78
2023/05/02 13:53:05;;;;;;;12.52;4.35;;;;;;;;;;5049394;28;20120;-78
2023/05/02 13:55:30;;;;;;;11.45;4.95;;;;;;;;;;5044952;28;20044;-78
2023/05/02 13:57:56;;;;;;;11.25;4.75;;;;;;;;;;5046232;28;20073;-78
2023/05/02 14:00:21;;;;;;;7.57;4.20;;;;;;;;;;5045971;28;20037;-78
2023/05/02 14:02:47;;;;;;;8.32;4.57;;;;;;;;;;5045915;28;20037;-78
2023/05/02 14:05:13;;;;;;;11.25;4.38;;;;;;;;;;5045612;28;20041;-78
2023/05/02 14:07:38;;;;;;;9.32;4.20;;;;;;;;;;5044238;28;20488;-77
2023/05/02 14:10:04;;;;;;;9.93;4.45;;;;;;;;;;5047550;28;20033;-78
2023/05/02 14:12:30;;;;;;;9.45;4.20;;;;;;;;;;5045181;28;20034;-78
2023/05/02 14:14:56;;;;;;;11.55;4.60;;;;;;;;;;5040111;28;20025;-78
2023/05/02 14:17:23;;;;;;;9.82;4.45;;;;;;;;;;5032096;28;20075;-78
2023/05/02 14:19:49;;;;;;;15.88;4.43;;;;;;;;;;5036046;28;20044;-78
2023/05/02 14:22:14;;;;;;;9.52;4.60;;;;;;;;;;5036472;28;20446;-78
2023/05/02 14:24:40;;;;;;;10.90;4.55;;;;;;;;;;5036114;28;20120;-78
2023/05/02 14:27:06;;;;;;;7.00;4.03;;;;;;;;;;5040090;28;20044;-78
2023/05/02 14:29:32;;;;;;;6.15;3.83;;;;;;;;;;5046790;28;20044;-78
2023/05/02 14:31:57;;;;;;;8.80;4.43;;;;;;;;;;5047462;28;20389;-78
2023/05/02 14:34:25;;;;;;;8.48;4.00;;;;;;;;;;5043148;28;20045;-78
2023/05/02 14:36:51;;;;;;;11.05;4.03;;;;;;;;;;5031104;28;20034;-78
2023/05/02 14:39:16;;;;;;;6.43;3.95;;;;;;;;;;5030023;28;20115;-79
2023/05/02 14:41:42;;;;;;;7.47;4.22;;;;;;;;;;5029919;28;20192;-78
2023/05/02 14:44:07;;;;;;;8.23;4.07;;;;;;;;;;5031508;28;20038;-78